createdAt,value
2022-10-09T00:02:53.195Z,10.14
2022-10-09T00:07:53.191Z,10.76
2022-10-09T00:12:53.204Z,12.44
2022-10-09T00:17:53.193Z,11.58
2022-10-09T00:22:53.212Z,12.1
2022-10-09T00:27:53.243Z,12.72
2022-10-09T00:32:53.214Z,12.48
2022-10-09T00:37:53.207Z,13.69
2022-10-09T00:42:53.203Z,13.74
2022-10-09T00:47:53.214Z,13.09
2022-10-09T00:52:53.213Z,15.3
2022-10-09T00:57:53.223Z,13.78
2022-10-09T01:02:53.554Z,14.85
2022-10-09T01:07:53.222Z,14.24
2022-10-09T01:12:53.226Z,14.32
2022-10-09T01:17:53.247Z,14.56
2022-10-09T01:22:53.255Z,14.56
2022-10-09T01:27:53.233Z,14.57
2022-10-09T01:32:53.236Z,13.2
2022-10-09T01:37:53.301Z,14.29
2022-10-09T01:42:53.233Z,14.06
2022-10-09T01:47:53.243Z,13.01
2022-10-09T01:52:53.349Z,12.91
2022-10-09T01:57:53.259Z,12.64
2022-10-09T02:02:53.633Z,13.51
2022-10-09T02:07:53.244Z,14.55
2022-10-09T02:12:53.284Z,13.35
2022-10-09T02:17:53.248Z,13.43
2022-10-09T02:22:53.291Z,12.15
2022-10-09T02:27:53.254Z,11.48
2022-10-09T02:32:53.263Z,9.95
2022-10-09T02:37:53.281Z,9.09
2022-10-09T02:42:53.269Z,9.18
2022-10-09T02:47:53.298Z,9.2
2022-10-09T02:52:53.265Z,9.56
2022-10-09T02:57:53.311Z,10.36
2022-10-09T03:02:53.543Z,10.09
2022-10-09T03:07:53.281Z,10.8
2022-10-09T03:12:53.275Z,10.06
2022-10-09T03:17:53.314Z,9.05
2022-10-09T03:22:53.283Z,8.32
2022-10-09T03:27:53.282Z,7.75
2022-10-09T03:32:53.280Z,6.62
2022-10-09T03:37:53.320Z,6.41
2022-10-09T03:42:53.293Z,5.35
2022-10-09T03:47:53.318Z,5.46
2022-10-09T03:52:53.337Z,4.98
2022-10-09T03:57:53.302Z,5
2022-10-09T04:02:53.582Z,4.77
2022-10-09T04:07:53.322Z,4.56
2022-10-09T04:12:53.309Z,4.51
2022-10-09T04:17:53.323Z,4.04
2022-10-09T04:22:53.328Z,4.57
2022-10-09T04:27:53.348Z,4.44
2022-10-09T04:32:53.311Z,4.16
2022-10-09T04:37:53.333Z,4.11
2022-10-09T04:42:53.322Z,4.02
2022-10-09T04:47:53.318Z,3.84
2022-10-09T04:52:53.352Z,3.61
2022-10-09T04:57:53.337Z,3.44
2022-10-09T05:02:53.330Z,3.46
2022-10-09T05:07:53.399Z,3.47
2022-10-09T05:12:53.366Z,3.44
2022-10-09T05:17:53.399Z,4.01
2022-10-09T05:22:53.429Z,4.04
2022-10-09T05:27:53.357Z,4
2022-10-09T05:32:53.372Z,4
2022-10-09T05:37:53.389Z,3.52
2022-10-09T05:42:53.380Z,2.91
2022-10-09T05:47:53.340Z,2.77
2022-10-09T05:52:53.343Z,2.7
2022-10-09T05:57:53.358Z,3.24
2022-10-09T06:02:53.591Z,2.95
2022-10-09T06:07:53.348Z,3.6
2022-10-09T06:12:53.385Z,4.05
2022-10-09T06:17:53.362Z,3.54
2022-10-09T06:22:53.369Z,3.44
2022-10-09T06:27:53.379Z,4.31
2022-10-09T06:32:53.363Z,3.17
2022-10-09T06:37:53.383Z,3.29
2022-10-09T06:42:53.400Z,3.04
2022-10-09T06:47:53.374Z,3.19
2022-10-09T06:52:53.375Z,3.41
2022-10-09T06:57:53.423Z,3.33
2022-10-09T07:02:53.673Z,3.25
2022-10-09T07:07:53.386Z,2.95
2022-10-09T07:12:53.416Z,3.16
2022-10-09T07:17:53.386Z,3.17
2022-10-09T07:22:53.392Z,3.06
2022-10-09T07:27:53.389Z,2.6
2022-10-09T07:32:53.397Z,2.53
2022-10-09T07:37:53.400Z,2.34
2022-10-09T07:42:53.409Z,2.47
2022-10-09T07:47:53.413Z,2.41
2022-10-09T07:52:53.406Z,2.65
2022-10-09T07:57:53.417Z,2.41
2022-10-09T08:02:53.740Z,2.46
2022-10-09T08:07:53.444Z,2.15
2022-10-09T08:12:53.424Z,2.06
2022-10-09T08:17:53.427Z,2.11
2022-10-09T08:22:53.452Z,1.95
2022-10-09T08:27:53.421Z,1.67
2022-10-09T08:32:53.429Z,1.76
2022-10-09T08:37:53.422Z,2.04
2022-10-09T08:42:53.429Z,1.73
2022-10-09T08:47:53.430Z,1.61
2022-10-09T08:52:53.588Z,1.54
2022-10-09T08:57:53.445Z,1.64
2022-10-09T09:02:53.680Z,1.7
2022-10-09T09:07:53.442Z,1.57
2022-10-09T09:12:53.465Z,1.42
2022-10-09T09:17:53.504Z,1.41
2022-10-09T09:22:53.471Z,1.48
2022-10-09T09:27:53.505Z,1.65
2022-10-09T09:32:53.498Z,1.7
2022-10-09T09:37:53.488Z,1.55
2022-10-09T09:42:53.484Z,1.56
2022-10-09T09:47:53.472Z,1.21
2022-10-09T09:52:53.475Z,1.28
2022-10-09T09:57:53.477Z,1.27
2022-10-09T10:02:53.477Z,1.32
2022-10-09T10:07:53.463Z,1.15
2022-10-09T10:12:53.479Z,1.18
2022-10-09T10:17:53.485Z,1.53
2022-10-09T10:22:53.473Z,1.25
2022-10-09T10:27:53.477Z,1.28
2022-10-09T10:32:53.479Z,1.21
2022-10-09T10:37:53.494Z,1.34
2022-10-09T10:42:56.216Z,1.28
2022-10-09T10:47:53.531Z,1.29
2022-10-09T10:52:53.518Z,1.25
2022-10-09T10:57:53.502Z,1.36
2022-10-09T11:02:53.819Z,1.25
2022-10-09T11:07:55.561Z,1.29
2022-10-09T11:12:53.492Z,1.12
2022-10-09T11:17:53.528Z,1.09
2022-10-09T11:22:53.500Z,0.89
2022-10-09T11:27:53.520Z,0.88
2022-10-09T11:32:53.520Z,1.04
2022-10-09T11:37:53.517Z,0.93
2022-10-09T11:42:53.512Z,1.13
2022-10-09T11:47:53.532Z,1.08
2022-10-09T11:52:53.527Z,0.98
2022-10-09T11:57:53.591Z,0.87
2022-10-09T12:02:53.537Z,0.96
2022-10-09T12:07:53.552Z,0.95
2022-10-09T12:12:53.529Z,1.16
2022-10-09T12:17:53.527Z,1.12
2022-10-09T12:23:14.196Z,1
2022-10-09T12:27:53.533Z,1.07
2022-10-09T12:32:53.576Z,1
2022-10-09T12:37:53.545Z,0.86
2022-10-09T12:42:53.752Z,0.89
2022-10-09T12:47:53.549Z,2.41
2022-10-09T12:52:53.549Z,1.87
2022-10-09T12:57:53.566Z,1.46
2022-10-09T13:02:54.009Z,1.2
2022-10-09T13:07:53.561Z,1.19
2022-10-09T13:12:53.596Z,1.42
2022-10-09T13:17:53.574Z,1.19
2022-10-09T13:22:53.579Z,1.15
2022-10-09T13:27:53.626Z,1.29
2022-10-09T13:32:53.606Z,1.13
2022-10-09T13:37:53.738Z,1.09
2022-10-09T13:42:53.579Z,1.48
2022-10-09T13:47:53.584Z,1.02
2022-10-09T13:52:53.587Z,1.13
2022-10-09T13:57:53.781Z,1.33
2022-10-09T14:02:53.598Z,1.17
2022-10-09T14:07:53.880Z,1.05
2022-10-09T14:12:53.595Z,1.14
2022-10-09T14:17:53.612Z,1.26
2022-10-09T14:22:53.598Z,1.33
2022-10-09T14:27:53.607Z,2.1
2022-10-09T14:32:53.636Z,1.52
2022-10-09T14:37:53.629Z,1.27
2022-10-09T14:42:53.615Z,1.2
2022-10-09T14:47:53.622Z,1.17
2022-10-09T14:52:53.634Z,1.28
2022-10-09T14:57:53.639Z,1.5
2022-10-09T15:02:55.104Z,1.44
2022-10-09T15:07:53.633Z,1.56
2022-10-09T15:12:53.658Z,1.6
2022-10-09T15:17:53.639Z,1.77
2022-10-09T15:22:53.635Z,2.34
2022-10-09T15:27:54.645Z,1.86
2022-10-09T15:32:53.637Z,1.96
2022-10-09T15:37:55.076Z,2.6
2022-10-09T15:42:53.657Z,2.72
2022-10-09T15:47:53.655Z,2.49
2022-10-09T15:52:53.649Z,2.87
2022-10-09T15:57:53.663Z,4.19
2022-10-09T16:02:53.658Z,4.72
2022-10-09T16:07:53.665Z,3.13
2022-10-09T16:12:53.653Z,2.95
2022-10-09T16:17:53.688Z,11.2
2022-10-09T16:22:53.665Z,16.06
2022-10-09T16:27:53.662Z,28.48
2022-10-09T16:32:53.711Z,10.83
2022-10-09T16:37:53.676Z,5.16
2022-10-09T16:42:53.672Z,6.24
2022-10-09T16:47:53.683Z,6.03
2022-10-09T16:52:53.673Z,5.28
2022-10-09T16:57:53.678Z,4.73
2022-10-09T17:02:53.711Z,4.87
2022-10-09T17:07:53.713Z,5.31
2022-10-09T17:12:53.708Z,4.39
2022-10-09T17:17:53.715Z,4.13
2022-10-09T17:22:53.695Z,4.13
2022-10-09T17:27:53.702Z,4.41
2022-10-09T17:32:53.728Z,4.61
2022-10-09T17:37:53.751Z,4.78
2022-10-09T17:42:53.707Z,3.95
2022-10-09T17:47:53.713Z,3.62
2022-10-09T17:52:53.693Z,3.47
2022-10-09T17:57:53.708Z,3.35
2022-10-09T18:02:53.709Z,3.43
2022-10-09T18:07:53.733Z,3.3
2022-10-09T18:12:53.757Z,3.24
2022-10-09T18:17:53.726Z,3.19
2022-10-09T18:22:53.710Z,3.4
2022-10-09T18:27:53.756Z,3.26
2022-10-09T18:32:53.748Z,3.34
2022-10-09T18:37:53.714Z,3.4
2022-10-09T18:42:53.730Z,3.48
2022-10-09T18:47:53.727Z,3.47
2022-10-09T18:52:53.743Z,3.89
2022-10-09T18:57:53.773Z,3.7
2022-10-09T19:02:53.728Z,3.66
2022-10-09T19:07:53.737Z,3.59
2022-10-09T19:12:53.745Z,3.62
2022-10-09T19:17:53.749Z,3.66
2022-10-09T19:22:53.774Z,6.69
2022-10-09T19:27:53.731Z,22.93
2022-10-09T19:32:53.739Z,12.25
2022-10-09T19:37:53.742Z,7.34
2022-10-09T19:42:53.783Z,6.95
2022-10-09T19:47:54.267Z,6.59
2022-10-09T19:52:53.746Z,6.5
2022-10-09T19:57:53.781Z,6.2
2022-10-09T20:02:53.813Z,5.7
2022-10-09T20:07:53.753Z,6.1
2022-10-09T20:12:53.761Z,6.02
2022-10-09T20:17:53.759Z,5.1
2022-10-09T20:22:53.762Z,5.05
2022-10-09T20:27:53.753Z,4.63
2022-10-09T20:32:58.141Z,5.6
2022-10-09T20:37:53.759Z,6.78
2022-10-09T20:42:53.895Z,6.94
2022-10-09T20:47:53.760Z,9.86
2022-10-09T20:52:53.770Z,9.61
2022-10-09T20:57:54.995Z,10.07
2022-10-09T21:02:53.766Z,9.38
2022-10-09T21:07:53.787Z,8.41
2022-10-09T21:12:53.804Z,7.86
2022-10-09T21:17:53.774Z,7.56
2022-10-09T21:22:53.784Z,7.66
2022-10-09T21:27:53.772Z,7.68
2022-10-09T21:32:53.810Z,7.89
2022-10-09T21:37:53.804Z,8.62
2022-10-09T21:47:53.786Z,8.45
2022-10-09T21:52:53.795Z,8.04
2022-10-09T21:57:53.808Z,8.77
2022-10-09T22:02:53.963Z,9.09
2022-10-09T22:07:53.790Z,9.08
2022-10-09T22:12:53.864Z,9.46
2022-10-09T22:17:53.791Z,9.74
2022-10-09T22:22:53.817Z,9.73
2022-10-09T22:27:53.797Z,11.01
2022-10-09T22:32:53.805Z,11.09
2022-10-09T22:37:53.831Z,10.44
2022-10-09T22:42:53.872Z,10.16
2022-10-09T22:47:53.803Z,10.54
2022-10-09T22:52:53.804Z,10.22
2022-10-09T22:57:53.821Z,10.12
2022-10-09T23:02:53.806Z,9.91
2022-10-09T23:07:53.812Z,10.65
2022-10-09T23:12:53.830Z,10.19
2022-10-09T23:17:53.827Z,9.51
2022-10-09T23:22:53.833Z,9.36
2022-10-09T23:27:53.829Z,9.91
2022-10-09T23:32:53.822Z,9.35
2022-10-09T23:37:53.819Z,8.59
2022-10-09T23:42:53.823Z,8.75
2022-10-09T23:47:53.827Z,8.18
2022-10-09T23:52:53.874Z,7.91
2022-10-09T23:57:53.828Z,7.34
